Flight Track Log - Related Links

Times and Time Zones

All times are in EDT time to prevent confusion due to time zone crossing. See the N516QS flight status page for this flight to view local times or setup timezone preferences in your user account.

Time Position Orientation Groundspeed Altitude Reporting Facility
EDT Latitude Longitude Course Direction KTS MPH feet Rate Location/Type
Thu 03:23:07 PM 39.0000 -77.6333 297° West 270 311 5,000  Level Potomac TRACON
Thu 03:24:07 PM 39.0667 -77.6833 330° Northwest 298 343 6,100 1,983 Climbing Potomac TRACON
Thu 03:25:08 PM 39.1500 -77.7167 343° North 315 362 9,000 1,488 Climbing Potomac TRACON
Thu 03:26:08 PM 39.2000 -77.6167 57° Northeast 312 359 9,100 50 Climbing Potomac TRACON
Thu 03:27:00 PM 39.2959 -76.8837 108° East  Level FlightAware Approximate
Thu 03:27:08 PM 39.2167 -77.5167 78° East 309 356 9,100  Level Potomac TRACON
Thu 03:28:03 PM 39.2333 -77.4167 78° East 307 353 9,100 470 Level Potomac TRACON
Thu 03:29:03 PM 39.2667 -77.3167 67° East 317 365 10,000 1,190 Climbing Potomac TRACON
Thu 03:30:04 PM 39.3000 -77.1833 72° East 390 449 11,500 2,479 Climbing Potomac TRACON
Thu 03:31:04 PM 39.3333 -77.0500 72° East 405 466 15,000 1,050 Climbing Potomac TRACON
Thu 03:33:24 PM 39.2644 -76.7228 105° East 406 467 15,000  Level Washington Center
Thu 03:34:24 PM 39.2261 -76.5883 110° East 401 461 15,000  Level Washington Center
Thu 03:35:24 PM 39.1622 -76.4722 125° Southeast 387 445 15,000 800 Level Washington Center
Thu 03:36:24 PM 39.0986 -76.3592 126° Southeast 393 452 16,600 1,500 Climbing Washington Center
Thu 03:37:24 PM 39.0283 -76.2383 127° Southeast 405 466 18,000 700 Climbing Washington Center
Thu 03:38:24 PM 39.0225 -76.1258 94° East 374 430 18,000  Level Washington Center
Thu 03:39:24 PM 39.1208 -76.0731 23° Northeast 277 319 18,000  Level Washington Center
Thu 03:40:24 PM 39.2314 -76.0711 North 301 346 18,000 -100 Level Washington Center
Thu 03:41:24 PM 39.3503 -76.0183 19° North 377 434 17,800 -146 Descending Washington Center
Thu 03:41:46 PM 39.3847 -75.9836 38° Northeast 388 447 17,800 -571 Level FAA TRACON SMA TRACON (SMA)
Thu 03:42:06 PM 39.4097 -75.9603 36° Northeast 377 434 17,400 -1,050 Descending FAA TRACON SMA TRACON (SMA)
Thu 03:42:26 PM 39.4367 -75.9344 37° Northeast 374 430 17,100 -1,200 Descending FAA TRACON SMA TRACON (SMA)
Thu 03:42:46 PM 39.4633 -75.8969 47° Northeast 373 429 16,600 -1,500 Descending FAA TRACON SMA TRACON (SMA)
Thu 03:43:06 PM 39.4806 -75.8639 56° Northeast 363 418 16,100 -1,385 Descending FAA TRACON SMA TRACON (SMA)
Thu 03:43:25 PM 39.4972 -75.8311 57° Northeast 360 414 15,700 -1,429 Descending FAA TRACON SMA TRACON (SMA)
Thu 03:43:48 PM 39.5189 -75.7892 56° Northeast 360 414 15,100 -1,636 Descending FAA TRACON SMA TRACON (SMA)
Thu 03:44:09 PM 39.5386 -75.7506 56° Northeast 361 415 14,500 -1,579 Descending FAA TRACON SMA TRACON (SMA)
Thu 03:44:26 PM 39.5522 -75.7244 56° Northeast 362 417 14,100 -1,459 Descending FAA TRACON SMA TRACON (SMA)
Thu 03:44:46 PM 39.5806 -75.6872 45° Northeast 357 411 13,600 -1,500 Descending FAA TRACON SMA TRACON (SMA)
Thu 03:45:06 PM 39.6069 -75.6686 29° Northeast 348 400 13,100 -900 Descending FAA TRACON SMA TRACON (SMA)
Thu 03:45:26 PM 39.6356 -75.6578 16° North 342 394 13,000 -150 Descending FAA TRACON SMA TRACON (SMA)
Thu 03:45:46 PM 39.6717 -75.6458 14° North 344 396 13,000  Level FAA TRACON SMA TRACON (SMA)
Thu 03:46:06 PM 39.7000 -75.6367 14° North 343 395 13,000  Level FAA TRACON SMA TRACON (SMA)
Thu 03:46:26 PM 39.7286 -75.6269 15° North 344 396 13,000  Level FAA TRACON SMA TRACON (SMA)
Thu 03:46:45 PM 39.7639 -75.6150 15° North 345 397 13,000  Level FAA TRACON SMA TRACON (SMA)
Thu 03:47:05 PM 39.7922 -75.5986 24° Northeast 359 413 13,000  Level FAA TRACON SMA TRACON (SMA)
Thu 03:47:25 PM 39.8175 -75.5792 31° Northeast 349 402 13,000  Level FAA TRACON SMA TRACON (SMA)
Thu 03:47:46 PM 39.8428 -75.5567 34° Northeast 353 406 13,000  Level FAA TRACON SMA TRACON (SMA)
Thu 03:48:05 PM 39.8736 -75.5283 35° Northeast 353 406 13,000  Level FAA TRACON SMA TRACON (SMA)
Thu 03:48:25 PM 39.8983 -75.5053 36° Northeast 352 405 13,000  Level FAA TRACON SMA TRACON (SMA)
Thu 03:48:45 PM 39.9231 -75.4825 35° Northeast 351 404 13,000  Level FAA TRACON SMA TRACON (SMA)
Thu 03:49:05 PM 39.9542 -75.4533 36° Northeast 356 410 13,000  Level FAA TRACON SMA TRACON (SMA)
Thu 03:49:25 PM 39.9725 -75.4364 35° Northeast 355 409 13,000  Level FAA TRACON SMA TRACON (SMA)
Thu 03:49:46 PM 40.0044 -75.4067 35° Northeast 356 410 13,000 150 Level FAA TRACON SMA TRACON (SMA)
Thu 03:50:05 PM 40.0356 -75.3775 36° Northeast 357 411 13,100 154 Climbing FAA TRACON SMA TRACON (SMA)
Thu 03:50:25 PM 40.0606 -75.3542 36° Northeast 357 411 13,100  Level FAA TRACON SMA TRACON (SMA)
Thu 03:50:45 PM 40.0856 -75.3308 36° Northeast 359 413 13,100  Level FAA TRACON SMA TRACON (SMA)
Thu 03:51:05 PM 40.1172 -75.3014 35° Northeast 360 414 13,100  Level FAA TRACON SMA TRACON (SMA)
Thu 03:51:25 PM 40.1406 -75.2797 35° Northeast 360 414 13,100 -293 Level FAA TRACON SMA TRACON (SMA)
Thu 03:51:46 PM 40.1678 -75.2544 35° Northeast 361 415 12,900 -1,350 Descending FAA TRACON SMA TRACON (SMA)
Thu 03:52:05 PM 40.1997 -75.2244 36° Northeast 364 419 12,200 -1,846 Descending FAA TRACON SMA TRACON (SMA)
Thu 03:52:25 PM 40.2247 -75.2017 35° Northeast 358 412 11,700 -1,650 Descending FAA TRACON SMA TRACON (SMA)
Thu 03:52:45 PM 40.2497 -75.1786 35° Northeast 356 410 11,100 -1,950 Descending FAA TRACON SMA TRACON (SMA)
Thu 03:53:05 PM 40.2775 -75.1517 36° Northeast 335 386 10,400 -1,756 Descending FAA TRACON SMA TRACON (SMA)
Thu 03:53:26 PM 40.3000 -75.1308 35° Northeast 332 382 9,900 -1,050 Descending FAA TRACON SMA TRACON (SMA)
Thu 03:53:45 PM 40.3231 -75.1081 37° Northeast 319 367 9,700 -1,050 Descending FAA TRACON SMA TRACON (SMA)
Thu 03:54:06 PM 40.3417 -75.0825 46° Northeast 316 364 9,200 -1,950 Descending FAA TRACON SMA TRACON (SMA)
Thu 03:54:25 PM 40.3644 -75.0506 47° Northeast 312 359 8,400 -2,308 Descending FAA TRACON SMA TRACON (SMA)
Thu 03:54:45 PM 40.3817 -75.0267 47° Northeast 314 361 7,700 -1,950 Descending FAA TRACON SMA TRACON (SMA)
Thu 03:55:05 PM 40.4047 -74.9908 50° Northeast 313 360 7,100 -878 Descending FAA TRACON SMA TRACON (SMA)
Thu 03:55:26 PM 40.4236 -74.9667 44° Northeast 312 359 7,100 -600 Level FAA TRACON SMA TRACON (SMA)
Thu 03:55:45 PM 40.4419 -74.9414 46° Northeast 312 359 6,700 -1,385 Descending FAA TRACON SMA TRACON (SMA)
Thu 03:56:05 PM 40.4600 -74.9158 47° Northeast 310 357 6,200 -1,610 Descending FAA TRACON SMA TRACON (SMA)
Thu 03:56:26 PM 40.4883 -74.8944 30° Northeast 310 357 5,600 -1,463 Descending FAA TRACON SMA TRACON (SMA)
Thu 03:56:46 PM 40.5097 -74.8792 29° Northeast 305 351 5,200 -1,350 Descending FAA TRACON SMA TRACON (SMA)
Thu 03:57:06 PM 40.5347 -74.8631 26° Northeast 304 350 4,700 -900 Descending FAA TRACON SMA TRACON (SMA)
Thu 03:57:26 PM 40.5406 -74.8589 28° Northeast 304 350 4,600 -383 Descending FAA TRACON SMA TRACON (SMA)
Thu 03:58:40 PM 40.6500 -74.7833 28° Northeast 298 343 4,100 -224 Descending New York TRACON
Thu 03:59:40 PM 40.7167 -74.7333 30° Northeast 302 348 4,100  Level New York TRACON
Thu 04:00:40 PM 40.7833 -74.6500 43° Northeast 299 344 4,100 -350 Level New York TRACON
Thu 04:01:40 PM 40.8333 -74.5667 52° Northeast 294 338 3,400 -500 Descending New York TRACON
Thu 04:02:40 PM 40.9000 -74.5000 37° Northeast 275 316 3,100 -158 Descending New York TRACON
Thu 04:03:34 PM 40.9500 -74.4333 45° Northeast 269 310 3,100  Level New York TRACON
Thu 04:04:34 PM 41.0000 -74.3667 45° Northeast 271 312 3,100  Level New York TRACON
Thu 04:05:35 PM 41.0333 -74.2833 62° Northeast 254 292 3,100  Level New York TRACON
Thu 04:06:34 PM 41.0333 -74.2000 90° East 237 273 3,100 -252 Level New York TRACON
Thu 04:07:34 PM 41.0333 -74.1167 90° East 207 238 2,600 -476 Descending New York TRACON
Thu 04:08:40 PM 41.0000 -74.0667 131° Southeast 181 208 2,100 -286 Descending New York TRACON
Thu 04:09:40 PM 40.9500 -74.0500 166° South 165 190 2,000 -100 Descending New York TRACON

Login

Don't have an account? Register now (free) for customized features, flight alerts, and more!